Flight Track Log - Related Links

Times and Time Zones

All times are in EDT time to prevent confusion due to time zone crossing. See the SKW6525 flight status page for this flight to view local times or setup timezone preferences in your user account.

Time Position Orientation Groundspeed Altitude Reporting Facility
EDT Latitude Longitude Course Direction KTS MPH feet Rate Location/Type
Sun 02:24:12 PM 41.9500 -87.8500 166° South 201 231 3,200  Level Chicago TRACON
Sun 02:25:13 PM 41.9000 -87.8000 143° Southeast 260 299 5,000 1,102 Climbing Chicago TRACON
Sun 02:25:50 PM 41.8611 -87.7875 167° South 259 298 5,000 61 Level Chicago Center
Sun 02:26:00 PM 41.7111 -87.7073 159° South  Level Estimated
Sun 02:26:52 PM 41.7867 -87.7828 177° South 266 306 5,100  Level Chicago Center
Sun 02:27:00 PM 41.6209 -87.6412 153° Southeast  Level Estimated
Sun 02:27:54 PM 41.7111 -87.7692 172° South 271 312 8,300  Level Chicago Center
Sun 02:28:00 PM 41.5212 -87.6074 166° South  Level FlightAware Approximate
Sun 02:28:56 PM 41.6408 -87.7214 153° Southeast 283 326 11,100  Level Chicago Center
Sun 02:29:00 PM 41.4315 -87.5402 166° South  Level Estimated
Sun 02:29:58 PM 41.5469 -87.6644 156° South 308 354 14,000  Level Chicago Center
Sun 02:31:01 PM 41.4644 -87.6158 156° South 319 367 16,300 2,064 Climbing Chicago Center
Sun 02:32:03 PM 41.3764 -87.5644 156° South 338 389 18,300 1,984 Climbing Chicago Center
Sun 02:33:05 PM 41.2850 -87.5117 157° South 351 404 20,400 1,984 Climbing Chicago Center
Sun 02:34:07 PM 41.1906 -87.4575 157° South 363 418 22,400 1,258 Climbing Chicago Center
Sun 02:35:09 PM 41.0903 -87.3997 157° South 382 440 23,000 242 Climbing Chicago Center
Sun 02:36:11 PM 40.9606 -87.3264 157° South 417 480 22,900  Descending Chicago Center
Sun 02:37:13 PM 40.8550 -87.2658 157° South 416 479 23,000  Climbing Chicago Center
Sun 02:38:15 PM 40.7508 -87.2067 157° South 411 473 22,900 -288 Descending Chicago Center
Sun 02:39:18 PM 40.6483 -87.1486 157° South 406 467 22,400 -1,440 Descending Chicago Center
Sun 02:40:20 PM 40.5469 -87.0942 158° South 399 459 19,900 -2,274 Descending Chicago Center
Sun 02:41:22 PM 40.4500 -87.0364 156° South 389 448 17,700 -2,468 Descending Chicago Center
Sun 02:42:24 PM 40.3408 -86.9767 157° South 363 418 14,800 -2,274 Descending Chicago Center
Sun 02:43:26 PM 40.2553 -86.9267 156° South 344 396 13,000 -871 Descending Chicago Center
Sun 02:44:28 PM 40.1728 -86.8803 157° South 331 381 13,000 -97 Level Chicago Center
Sun 02:45:30 PM 40.1072 -86.7964 136° Southeast 337 388 12,800 -871 Descending Chicago Center
Sun 02:46:32 PM 40.0350 -86.7411 150° Southeast 309 356 11,200 -1,620 Descending Chicago Center
Sun 02:47:10 PM 39.9922 -86.7075 149° Southeast 301 346 10,100 -1,920 Descending Indianapolis Center
Sun 02:48:12 PM 39.9097 -86.6433 149° Southeast 292 336 8,000 -1,887 Descending Indianapolis Center
Sun 02:49:14 PM 39.8433 -86.5931 150° Southeast 281 323 6,200 -1,694 Descending Indianapolis Center
Sun 02:50:16 PM 39.7783 -86.5419 149° Southeast 278 320 4,500 -1,452 Descending Indianapolis Center
Sun 02:51:18 PM 39.7167 -86.4933 149° Southeast 271 312 3,200 -871 Descending Indianapolis Center
Sun 02:52:20 PM 39.6606 -86.4378 143° Southeast 229 264 2,700 -532 Descending Indianapolis Center
Sun 02:53:22 PM 39.6558 -86.3867 97° East 182 209 2,100 -634 Descending Indianapolis Center
Sun 02:54:23 PM 39.6822 -86.3514 46° Northeast 152 175 1,400 -634 Descending Indianapolis Center
Sun 02:55:25 PM 39.7086 -86.3181 44° Northeast 140 161 800 -581 Descending Indianapolis Center

Login

Don't have an account? Register now (free) for customized features, flight alerts, and more!